createdAt,value
2023-05-12T00:00:06.286Z,99942.16
2023-05-12T00:02:38.566Z,99940.71
2023-05-12T00:05:05.748Z,99942.84
2023-05-12T00:07:32.543Z,99944.83
2023-05-12T00:09:59.341Z,99942.77
2023-05-12T00:12:26.180Z,99944.00
2023-05-12T00:14:52.889Z,99941.92
2023-05-12T00:17:19.703Z,99942.65
2023-05-12T00:19:46.899Z,99945.63
2023-05-12T00:22:14.370Z,99943.25
2023-05-12T00:24:41.133Z,99945.73
2023-05-12T00:27:07.818Z,99945.52
2023-05-12T00:29:34.591Z,99945.99
2023-05-12T00:32:01.423Z,99945.99
2023-05-12T00:34:28.654Z,99945.61
2023-05-12T00:36:55.449Z,99947.30
2023-05-12T00:39:22.229Z,99947.94
2023-05-12T00:41:50.238Z,99947.44
2023-05-12T00:44:18.481Z,99948.99
2023-05-12T00:46:45.252Z,99950.27
2023-05-12T00:49:12.267Z,99951.11
2023-05-12T00:51:39.540Z,99951.41
2023-05-12T00:54:06.275Z,99951.34
2023-05-12T00:56:39.367Z,99949.33
2023-05-12T00:59:08.192Z,99949.56
2023-05-12T01:01:37.813Z,99952.05
2023-05-12T01:04:04.757Z,99949.21
2023-05-12T01:06:34.174Z,99956.39
2023-05-12T01:09:01.183Z,99956.17
2023-05-12T01:11:27.986Z,99958.30
2023-05-12T01:13:54.731Z,99952.37
2023-05-12T01:16:23.721Z,99958.39
2023-05-12T01:18:53.271Z,99957.35
2023-05-12T01:21:20.608Z,99954.95
2023-05-12T01:23:58.875Z,99961.23
2023-05-12T01:26:29.825Z,99959.45
2023-05-12T01:28:56.762Z,99962.95
2023-05-12T01:31:24.248Z,99967.67
2023-05-12T01:33:51.085Z,99964.29
2023-05-12T01:36:18.023Z,99967.38
2023-05-12T01:38:44.992Z,99968.62
2023-05-12T01:41:11.743Z,99970.80
2023-05-12T01:43:38.697Z,99973.80
2023-05-12T01:46:05.644Z,99971.30
2023-05-12T01:48:32.413Z,99976.83
2023-05-12T01:51:02.238Z,99977.52
2023-05-12T01:53:29.084Z,99979.60
2023-05-12T01:55:55.804Z,99983.58
2023-05-12T01:58:23.115Z,99982.98
2023-05-12T02:00:49.964Z,99986.30
2023-05-12T02:03:17.142Z,99988.86
2023-05-12T02:05:43.937Z,99988.58
2023-05-12T02:08:11.206Z,99988.83
2023-05-12T02:10:38.314Z,99994.83
2023-05-12T02:13:05.021Z,99993.96
2023-05-12T02:15:32.227Z,99994.95
2023-05-12T02:17:59.338Z,99992.09
2023-05-12T02:20:28.956Z,99993.66
2023-05-12T02:22:56.181Z,99991.95
2023-05-12T02:25:22.888Z,99991.54
2023-05-12T02:27:49.929Z,99993.14
2023-05-12T02:30:16.867Z,99990.45
2023-05-12T02:32:43.642Z,99995.04
2023-05-12T02:35:10.634Z,99992.78
2023-05-12T02:37:37.404Z,99999.87
2023-05-12T02:40:04.900Z,99999.66
2023-05-12T02:42:35.488Z,100003.61
2023-05-12T02:45:03.014Z,100003.36
2023-05-12T02:47:33.051Z,100002.00
2023-05-12T02:50:00.273Z,99999.10
2023-05-12T02:52:27.069Z,100003.45
2023-05-12T02:54:53.865Z,100007.33
2023-05-12T02:57:20.906Z,100007.34
2023-05-12T02:59:47.658Z,100006.80
2023-05-12T03:02:14.473Z,100008.48
2023-05-12T03:04:41.204Z,100009.23
2023-05-12T03:07:09.278Z,100015.27
2023-05-12T03:09:36.266Z,100017.06
2023-05-12T03:12:03.037Z,100017.89
2023-05-12T03:14:30.162Z,100019.28
2023-05-12T03:16:57.171Z,100018.54
2023-05-12T03:19:23.962Z,100010.63
2023-05-12T03:21:50.672Z,100009.84
2023-05-12T03:24:17.391Z,100012.38
2023-05-12T03:26:44.264Z,100010.14
2023-05-12T03:29:11.080Z,100015.98
2023-05-12T03:31:37.954Z,100021.89
2023-05-12T03:34:04.889Z,100024.27
2023-05-12T03:36:31.723Z,100024.55
2023-05-12T03:38:58.518Z,100026.15
2023-05-12T03:41:25.281Z,100022.91
2023-05-12T03:43:52.013Z,100026.21
2023-05-12T03:46:18.849Z,100025.95
2023-05-12T03:48:45.663Z,100027.64
2023-05-12T03:51:12.657Z,100028.50
2023-05-12T03:53:45.318Z,100030.75
2023-05-12T03:56:12.954Z,100034.41
2023-05-12T03:58:39.773Z,100033.23
2023-05-12T04:01:06.476Z,100034.20
2023-05-12T04:03:33.412Z,100034.13
2023-05-12T04:06:04.363Z,100035.17
2023-05-12T04:08:31.277Z,100037.61
2023-05-12T04:10:58.774Z,100033.61
2023-05-12T04:13:25.770Z,100036.36
2023-05-12T04:15:55.217Z,100038.04
2023-05-12T04:18:22.991Z,100033.67
2023-05-12T04:20:49.926Z,100030.42
2023-05-12T04:23:16.746Z,100031.45
2023-05-12T04:25:43.524Z,100035.08
2023-05-12T04:28:12.116Z,100035.29
2023-05-12T04:30:40.347Z,100032.38
2023-05-12T04:33:07.268Z,100032.30
2023-05-12T04:35:34.191Z,100031.64
2023-05-12T04:38:04.464Z,100028.63
2023-05-12T04:40:34.080Z,100029.38
2023-05-12T04:43:01.774Z,100024.64
2023-05-12T04:45:30.405Z,100020.41
2023-05-12T04:47:57.203Z,100020.52
2023-05-12T04:50:23.980Z,100018.18
2023-05-12T04:52:50.771Z,100019.80
2023-05-12T04:55:17.915Z,100015.05
2023-05-12T04:57:44.989Z,100018.70
2023-05-12T05:00:12.242Z,100019.41
2023-05-12T05:02:39.437Z,100016.70
2023-05-12T05:05:06.910Z,100013.34
2023-05-12T05:07:34.023Z,100014.22
2023-05-12T05:10:01.153Z,100016.77
2023-05-12T05:12:28.757Z,100020.63
2023-05-12T05:14:55.521Z,100019.34
2023-05-12T05:17:23.021Z,100014.50
2023-05-12T05:19:55.962Z,100017.09
2023-05-12T05:22:25.757Z,100015.68
2023-05-12T05:24:52.685Z,100012.42
2023-05-12T05:27:19.555Z,100015.42
2023-05-12T05:29:46.456Z,100014.83
2023-05-12T05:32:13.252Z,100012.63
2023-05-12T05:34:40.383Z,100012.86
2023-05-12T05:37:07.149Z,100017.23
2023-05-12T05:39:33.835Z,100015.89
2023-05-12T05:42:00.617Z,100014.44
2023-05-12T05:44:27.447Z,100010.20
2023-05-12T05:46:55.300Z,100017.17
2023-05-12T05:49:24.052Z,100014.20
2023-05-12T05:51:51.492Z,100011.54
2023-05-12T05:54:18.903Z,100012.09
2023-05-12T05:56:45.826Z,100011.76
2023-05-12T05:59:14.368Z,100008.15
2023-05-12T06:01:41.283Z,100002.90
2023-05-12T06:04:08.473Z,100007.02
2023-05-12T06:06:35.572Z,100010.67
2023-05-12T06:09:02.436Z,100010.56
2023-05-12T06:11:29.180Z,100012.84
2023-05-12T06:13:55.953Z,100012.43
2023-05-12T06:16:25.310Z,100013.29
2023-05-12T06:18:52.106Z,100014.55
2023-05-12T06:21:19.069Z,100012.29
2023-05-12T06:23:46.336Z,100011.70
2023-05-12T06:26:13.245Z,100010.59
2023-05-12T06:28:40.065Z,100017.14
2023-05-12T06:31:08.629Z,100015.27
2023-05-12T06:33:35.493Z,100011.23
2023-05-12T06:36:02.325Z,100010.92
2023-05-12T06:38:29.030Z,100010.73
2023-05-12T06:40:55.749Z,100014.76
2023-05-12T06:43:23.406Z,100016.48
2023-05-12T06:45:53.160Z,100014.64
2023-05-12T06:48:20.033Z,100012.90
2023-05-12T06:50:46.817Z,100010.09
2023-05-12T06:53:13.568Z,100008.73
2023-05-12T06:55:40.447Z,100010.51
2023-05-12T06:58:08.583Z,100011.68
2023-05-12T07:00:35.397Z,100013.02
2023-05-12T07:03:02.220Z,100016.48
2023-05-12T07:05:29.034Z,100014.38
2023-05-12T07:07:55.790Z,100009.98
2023-05-12T07:10:22.567Z,100010.17
2023-05-12T07:12:49.361Z,100009.14
2023-05-12T07:15:16.072Z,100010.18
2023-05-12T07:17:42.784Z,100013.10
2023-05-12T07:20:09.892Z,100014.15
2023-05-12T07:22:38.772Z,100013.64
2023-05-12T07:25:07.618Z,100008.80
2023-05-12T07:27:34.427Z,100012.50
2023-05-12T07:30:01.321Z,100013.04
2023-05-12T07:32:28.179Z,100009.09
2023-05-12T07:34:55.136Z,100013.71
2023-05-12T07:37:21.943Z,100015.58
2023-05-12T07:39:48.754Z,100013.27
2023-05-12T07:42:15.657Z,100010.17
2023-05-12T07:44:42.563Z,100010.96
2023-05-12T07:47:09.315Z,100012.05
2023-05-12T07:49:36.144Z,100005.60
2023-05-12T07:52:03.139Z,100001.52
2023-05-12T07:54:29.860Z,100006.52
2023-05-12T07:56:56.652Z,100001.65
2023-05-12T07:59:23.348Z,100001.79
2023-05-12T08:01:50.105Z,99995.86
2023-05-12T08:04:16.905Z,100000.20
2023-05-12T08:06:43.655Z,99999.77
2023-05-12T08:09:10.339Z,99993.13
2023-05-12T08:11:37.215Z,99999.23
2023-05-12T08:14:04.054Z,100001.83
2023-05-12T08:16:30.863Z,100002.39
2023-05-12T08:18:58.845Z,100000.70
2023-05-12T08:21:25.719Z,99995.16
2023-05-12T08:23:52.441Z,99991.35
2023-05-12T08:26:19.154Z,99992.05
2023-05-12T08:28:45.890Z,99989.64
2023-05-12T08:31:12.721Z,99990.43
2023-05-12T08:33:39.598Z,99992.61
2023-05-12T08:36:06.427Z,99987.38
2023-05-12T08:38:33.305Z,99984.48
2023-05-12T08:41:16.834Z,99982.70
2023-05-12T08:43:45.661Z,99979.10
2023-05-12T08:46:13.034Z,99978.35
2023-05-12T08:48:40.536Z,99987.32
2023-05-12T08:51:12.086Z,99982.98
2023-05-12T08:53:39.489Z,99978.27
2023-05-12T08:58:41.761Z,99982.45
2023-05-12T09:01:09.102Z,99978.54
2023-05-12T09:03:36.052Z,99979.38
2023-05-12T09:06:03.698Z,99969.70
2023-05-12T09:08:31.877Z,99973.36
2023-05-12T09:10:59.043Z,99968.64
2023-05-12T09:13:30.079Z,99980.84
2023-05-12T09:15:58.951Z,99976.02
2023-05-12T09:18:26.040Z,99974.89
2023-05-12T09:20:52.847Z,99980.36
2023-05-12T09:23:20.416Z,99977.27
2023-05-12T09:25:47.266Z,99981.04
2023-05-12T09:28:14.006Z,99969.35
2023-05-12T09:30:42.545Z,99963.84
2023-05-12T09:33:10.615Z,99963.87
2023-05-12T09:35:46.431Z,99967.86
2023-05-12T09:38:14.259Z,99953.77
2023-05-12T09:40:41.108Z,99955.64
2023-05-12T09:43:08.116Z,99952.17
2023-05-12T09:45:36.222Z,99949.52
2023-05-12T09:48:11.074Z,99948.17
2023-05-12T09:50:48.599Z,99941.27
2023-05-12T09:53:17.907Z,99941.74
2023-05-12T09:55:45.633Z,99946.10
2023-05-12T09:58:12.444Z,99945.53
2023-05-12T10:00:58.433Z,99942.46
2023-05-12T10:03:26.515Z,99935.35
2023-05-12T10:05:58.232Z,99929.44
2023-05-12T10:08:27.551Z,99929.66
2023-05-12T10:10:54.267Z,99928.64
2023-05-12T10:13:21.219Z,99926.23
2023-05-12T10:15:48.524Z,99927.49
2023-05-12T10:18:16.315Z,99926.99
2023-05-12T10:20:47.209Z,99928.69
2023-05-12T10:23:14.644Z,99924.55
2023-05-12T10:25:42.122Z,99928.77
2023-05-12T10:28:09.164Z,99922.41
2023-05-12T10:30:37.476Z,99918.86
2023-05-12T10:33:05.344Z,99922.64
2023-05-12T10:35:34.218Z,99922.84
2023-05-12T10:38:07.792Z,99920.71
2023-05-12T10:40:34.518Z,99920.96
2023-05-12T10:43:01.474Z,99921.86
2023-05-12T10:45:28.356Z,99921.48
2023-05-12T10:48:05.276Z,99923.34
2023-05-12T10:50:31.995Z,99927.91
2023-05-12T10:52:58.873Z,99923.59
2023-05-12T10:55:32.962Z,99912.94
2023-05-12T10:58:10.667Z,99922.23
2023-05-12T11:00:50.833Z,99916.80
2023-05-12T11:03:23.964Z,99918.96
2023-05-12T11:06:02.956Z,99922.14
2023-05-12T11:08:32.272Z,99927.29
2023-05-12T11:10:59.513Z,99915.20
2023-05-12T11:13:26.338Z,99922.43
2023-05-12T11:15:53.155Z,99913.66
2023-05-12T11:18:21.494Z,99909.25
2023-05-12T11:20:48.324Z,99904.52
2023-05-12T11:23:26.839Z,99899.30
2023-05-12T11:25:53.595Z,99900.59
2023-05-12T11:28:20.403Z,99911.89
2023-05-12T11:48:35.033Z,99899.88
2023-05-12T11:51:02.563Z,99901.59
2023-05-12T11:53:29.287Z,99889.89
2023-05-12T11:55:57.016Z,99885.65
2023-05-12T11:58:30.724Z,99886.95
2023-05-12T12:00:57.753Z,99884.29
2023-05-12T12:03:24.936Z,99882.80
2023-05-12T12:06:02.688Z,99878.98
2023-05-12T12:08:29.508Z,99879.59
2023-05-12T12:10:56.232Z,99875.31
2023-05-12T12:13:23.906Z,99875.63
2023-05-12T12:15:50.841Z,99872.10
2023-05-12T12:18:17.737Z,99867.98
2023-05-12T12:20:46.314Z,99868.42
2023-05-12T12:23:13.165Z,99877.63
2023-05-12T12:25:40.063Z,99878.78
2023-05-12T12:28:06.917Z,99874.44
2023-05-12T12:30:33.725Z,99864.10
2023-05-12T12:33:00.581Z,99862.31
2023-05-12T12:35:27.916Z,99866.30
2023-05-12T12:37:55.522Z,99855.64
2023-05-12T12:40:22.360Z,99858.00
2023-05-12T12:42:49.107Z,99852.98
2023-05-12T12:45:16.531Z,99851.45
2023-05-12T12:47:44.770Z,99854.27
2023-05-12T12:50:12.064Z,99848.67
2023-05-12T12:52:39.158Z,99851.64
2023-05-12T12:55:07.331Z,99847.50
2023-05-12T12:57:34.098Z,99842.59
2023-05-12T13:00:01.379Z,99842.93
2023-05-12T13:02:28.267Z,99841.35
2023-05-12T13:04:55.097Z,99837.85
2023-05-12T13:07:21.947Z,99836.34
2023-05-12T13:09:48.764Z,99832.49
2023-05-12T13:12:15.594Z,99831.20
2023-05-12T13:14:42.341Z,99834.67
2023-05-12T13:17:09.156Z,99835.27
2023-05-12T13:19:37.940Z,99829.86
2023-05-12T13:22:05.311Z,99825.10
2023-05-12T13:24:32.006Z,99822.77
2023-05-12T13:26:58.942Z,99825.09
2023-05-12T13:29:25.743Z,99826.14
2023-05-12T13:31:52.468Z,99826.59
2023-05-12T13:34:19.430Z,99828.40
2023-05-12T13:36:46.262Z,99824.14
2023-05-12T13:39:13.275Z,99829.80
2023-05-12T13:41:40.019Z,99822.02
2023-05-12T13:44:06.732Z,99819.19
2023-05-12T13:46:33.542Z,99814.40
2023-05-12T13:49:00.831Z,99811.58
2023-05-12T13:51:27.700Z,99807.84
2023-05-12T13:53:54.398Z,99809.59
2023-05-12T13:56:21.988Z,99802.46
2023-05-12T13:58:49.128Z,99804.73
2023-05-12T14:01:16.051Z,99804.17
2023-05-12T14:03:42.958Z,99797.98
2023-05-12T14:06:09.767Z,99796.20
2023-05-12T14:08:36.512Z,99795.09
2023-05-12T14:11:03.466Z,99799.52
2023-05-12T14:13:30.984Z,99793.98
2023-05-12T14:15:58.370Z,99798.64
2023-05-12T14:18:25.932Z,99799.58
2023-05-12T14:20:52.940Z,99796.34
2023-05-12T14:23:19.731Z,99798.10
2023-05-12T14:25:46.480Z,99798.05
2023-05-12T14:28:13.297Z,99800.18
2023-05-12T14:30:40.256Z,99798.55
2023-05-12T14:33:07.318Z,99799.67
2023-05-12T14:35:34.007Z,99796.36
2023-05-12T14:38:00.698Z,99793.95
2023-05-12T14:40:27.497Z,99794.20
2023-05-12T14:42:55.209Z,99796.84
2023-05-12T14:45:22.292Z,99790.43
2023-05-12T14:47:49.354Z,99791.95
2023-05-12T14:50:16.212Z,99794.36
2023-05-12T14:52:42.990Z,99791.81
2023-05-12T14:55:12.353Z,99793.38
2023-05-12T14:57:42.367Z,99792.27
2023-05-12T15:00:13.058Z,99788.46
2023-05-12T15:02:40.428Z,99790.83
2023-05-12T15:05:08.409Z,99786.30
2023-05-12T15:07:35.397Z,99789.23
2023-05-12T15:10:02.235Z,99783.94
2023-05-12T15:12:29.025Z,99784.89
2023-05-12T15:15:01.299Z,99785.20
2023-05-12T15:17:31.049Z,99785.15
2023-05-12T15:19:58.103Z,99785.33
2023-05-12T15:22:24.889Z,99781.60
2023-05-12T15:24:51.624Z,99780.02
2023-05-12T15:27:18.355Z,99775.47
2023-05-12T15:29:45.209Z,99772.70
2023-05-12T15:32:11.915Z,99776.86
2023-05-12T15:34:39.264Z,99773.41
2023-05-12T15:37:06.691Z,99773.82
2023-05-12T15:39:33.538Z,99771.10
2023-05-12T15:42:01.106Z,99767.86
2023-05-12T15:44:27.916Z,99768.95
2023-05-12T15:46:54.981Z,99771.15
2023-05-12T15:49:22.929Z,99766.10
2023-05-12T15:51:50.363Z,99766.70
2023-05-12T15:54:17.444Z,99768.41
2023-05-12T15:56:44.197Z,99769.08
2023-05-12T15:59:12.265Z,99768.34
2023-05-12T16:01:39.250Z,99768.51
2023-05-12T16:04:06.941Z,99767.38
2023-05-12T16:06:33.949Z,99770.84
2023-05-12T16:09:00.789Z,99767.38
2023-05-12T16:11:28.328Z,99762.08
2023-05-12T16:13:57.051Z,99763.10
2023-05-12T16:16:23.886Z,99762.30
2023-05-12T16:18:50.665Z,99761.95
2023-05-12T16:21:17.593Z,99766.02
2023-05-12T16:23:44.295Z,99761.30
2023-05-12T16:26:11.229Z,99756.86
2023-05-12T16:28:38.042Z,99759.34
2023-05-12T16:31:04.994Z,99761.70
2023-05-12T16:33:32.128Z,99762.23
2023-05-12T16:35:58.875Z,99764.32
2023-05-12T16:38:25.764Z,99765.38
2023-05-12T16:40:52.558Z,99766.38
2023-05-12T16:43:19.326Z,99768.15
2023-05-12T16:45:46.144Z,99772.67
2023-05-12T16:48:12.928Z,99773.85
2023-05-12T16:50:39.838Z,99776.30
2023-05-12T16:53:06.663Z,99776.58
2023-05-12T16:55:33.423Z,99783.98
2023-05-12T16:58:00.172Z,99784.67
2023-05-12T17:00:26.919Z,99784.85
2023-05-12T17:02:53.762Z,99787.15
2023-05-12T17:05:21.404Z,99786.34
2023-05-12T17:07:48.488Z,99792.15
2023-05-12T17:10:15.898Z,99789.90
2023-05-12T17:12:43.011Z,99791.55
2023-05-12T17:15:10.587Z,99789.20
2023-05-12T17:17:37.483Z,99789.34
2023-05-12T17:20:04.684Z,99792.86
2023-05-12T17:22:32.472Z,99792.02
2023-05-12T17:24:59.320Z,99790.23
2023-05-12T17:27:26.073Z,99792.90
2023-05-12T17:29:52.914Z,99791.75
2023-05-12T17:32:19.776Z,99790.16
2023-05-12T17:34:49.424Z,99793.52
2023-05-12T17:37:16.455Z,99790.34
2023-05-12T17:39:44.427Z,99794.31
2023-05-12T17:42:11.347Z,99796.29
2023-05-12T17:44:38.182Z,99796.52
2023-05-12T17:47:05.259Z,99798.02
2023-05-12T17:49:32.049Z,99796.93
2023-05-12T17:51:58.806Z,99803.27
2023-05-12T17:54:25.578Z,99804.20
2023-05-12T17:56:52.292Z,99806.86
2023-05-12T17:59:19.021Z,99805.34
2023-05-12T18:01:45.715Z,99805.98
2023-05-12T18:04:12.406Z,99806.75
2023-05-12T18:06:39.215Z,99808.99
2023-05-12T18:09:06.864Z,99811.16
2023-05-12T18:11:34.388Z,99812.06
2023-05-12T18:14:02.549Z,99814.10
2023-05-12T18:16:29.751Z,99814.73
2023-05-12T18:18:57.178Z,99818.91
2023-05-12T18:21:24.791Z,99821.00
2023-05-12T18:23:51.562Z,99824.71
2023-05-12T18:26:18.290Z,99829.20
2023-05-12T18:28:45.016Z,99829.71
2023-05-12T18:33:41.673Z,99830.34
2023-05-12T18:36:08.658Z,99830.34
2023-05-12T18:38:35.395Z,99834.43
2023-05-12T18:41:02.397Z,99831.98
2023-05-12T18:43:29.215Z,99838.09
2023-05-12T18:45:56.355Z,99839.21
2023-05-12T18:48:23.222Z,99835.50
2023-05-12T18:50:50.539Z,99834.40
2023-05-12T18:53:17.263Z,99839.15
2023-05-12T18:55:44.034Z,99840.21
2023-05-12T18:58:11.206Z,99837.58
2023-05-12T19:00:37.947Z,99838.69
2023-05-12T19:03:04.880Z,99841.14
2023-05-12T19:05:31.851Z,99842.00
2023-05-12T19:07:58.651Z,99843.86
2023-05-12T19:10:25.467Z,99849.33
2023-05-12T19:12:52.181Z,99847.63
2023-05-12T19:15:19.413Z,99846.73
2023-05-12T19:17:46.462Z,99850.09
2023-05-12T19:20:14.169Z,99849.75
2023-05-12T19:22:41.796Z,99850.22
2023-05-12T19:25:09.507Z,99850.83
2023-05-12T19:27:36.289Z,99847.63
2023-05-12T19:30:05.056Z,99852.92
2023-05-12T19:32:32.499Z,99854.45
2023-05-12T19:35:00.256Z,99853.73
2023-05-12T19:37:27.598Z,99855.35
2023-05-12T19:39:54.304Z,99856.34
2023-05-12T19:42:21.429Z,99853.85
2023-05-12T19:44:48.149Z,99851.69
2023-05-12T19:47:14.928Z,99853.77
2023-05-12T19:49:41.758Z,99854.98
2023-05-12T19:52:08.657Z,99855.48
2023-05-12T19:54:36.042Z,99854.05
2023-05-12T19:57:02.815Z,99853.29
2023-05-12T19:59:29.635Z,99848.93
2023-05-12T20:01:56.538Z,99852.23
2023-05-12T20:04:23.424Z,99851.59
2023-05-12T20:06:50.569Z,99850.61
2023-05-12T20:09:18.372Z,99849.20
2023-05-12T20:11:45.116Z,99853.18
2023-05-12T20:14:11.822Z,99848.08
2023-05-12T20:16:38.559Z,99846.05
2023-05-12T20:19:06.513Z,99848.98
2023-05-12T20:21:33.309Z,99850.30
2023-05-12T20:24:00.030Z,99847.91
2023-05-12T20:26:26.919Z,99850.94
2023-05-12T20:28:53.666Z,99849.13
2023-05-12T20:31:20.927Z,99851.02
2023-05-12T20:33:48.137Z,99852.48
2023-05-12T20:36:15.104Z,99855.48
2023-05-12T20:38:41.873Z,99855.77
2023-05-12T20:41:08.718Z,99862.89
2023-05-12T20:43:36.429Z,99861.08
2023-05-12T20:46:04.106Z,99862.15
2023-05-12T20:48:30.912Z,99861.67
2023-05-12T20:50:57.636Z,99863.83
2023-05-12T20:53:24.618Z,99858.77
2023-05-12T20:55:51.399Z,99859.62
2023-05-12T20:58:18.259Z,99862.71
2023-05-12T21:00:44.960Z,99864.09
2023-05-12T21:03:16.824Z,99860.74
2023-05-12T21:05:47.705Z,99861.95
2023-05-12T21:08:14.659Z,99863.41
2023-05-12T21:10:41.465Z,99862.69
2023-05-12T21:13:08.185Z,99864.04
2023-05-12T21:15:35.357Z,99864.00
2023-05-12T21:18:02.077Z,99867.90
2023-05-12T21:20:28.844Z,99868.02
2023-05-12T21:22:56.968Z,99868.60
2023-05-12T21:25:23.944Z,99871.29
2023-05-12T21:27:50.795Z,99877.45
2023-05-12T21:30:17.578Z,99881.23
2023-05-12T21:32:44.408Z,99887.25
2023-05-12T21:35:11.600Z,99888.66
2023-05-12T21:37:38.363Z,99888.72
2023-05-12T21:40:05.600Z,99885.61
2023-05-12T21:42:32.342Z,99887.77
2023-05-12T21:44:59.051Z,99887.84
2023-05-12T21:47:25.848Z,99884.86
2023-05-12T21:49:55.796Z,99884.62
2023-05-12T21:52:22.778Z,99886.73
2023-05-12T21:54:49.509Z,99886.98
2023-05-12T21:57:16.300Z,99887.33
2023-05-12T21:59:43.024Z,99886.36
2023-05-12T22:02:09.970Z,99889.68
2023-05-12T22:04:36.697Z,99887.70
2023-05-12T22:07:03.445Z,99889.55
2023-05-12T22:09:31.284Z,99888.96
2023-05-12T22:11:58.111Z,99888.20
2023-05-12T22:14:24.878Z,99889.47
2023-05-12T22:16:51.645Z,99893.17
2023-05-12T22:19:18.400Z,99887.65
2023-05-12T22:21:45.709Z,99895.98
2023-05-12T22:24:12.452Z,99894.54
2023-05-12T22:26:39.276Z,99892.88
2023-05-12T22:29:06.124Z,99895.31
2023-05-12T22:31:32.901Z,99892.46
2023-05-12T22:33:59.711Z,99891.76
2023-05-12T22:36:26.407Z,99887.87
2023-05-12T22:38:53.149Z,99891.31
2023-05-12T22:41:19.925Z,99892.12
2023-05-12T22:43:46.603Z,99890.09
2023-05-12T22:46:13.354Z,99891.21
2023-05-12T22:48:40.158Z,99890.14
2023-05-12T22:51:06.928Z,99891.10
2023-05-12T22:53:35.956Z,99892.30
2023-05-12T22:56:03.301Z,99896.30
2023-05-12T22:58:30.273Z,99893.88
2023-05-12T23:00:57.107Z,99893.54
2023-05-12T23:03:24.035Z,99895.02
2023-05-12T23:05:51.002Z,99893.83
2023-05-12T23:08:17.780Z,99890.31
2023-05-12T23:10:44.518Z,99888.60
2023-05-12T23:13:11.269Z,99886.92
2023-05-12T23:15:38.056Z,99884.75
2023-05-12T23:18:04.879Z,99885.27
2023-05-12T23:20:31.879Z,99888.99
2023-05-12T23:22:58.645Z,99889.28
2023-05-12T23:25:25.387Z,99892.50
2023-05-12T23:27:52.087Z,99893.77
2023-05-12T23:30:18.927Z,99889.55
2023-05-12T23:32:46.466Z,99892.61
2023-05-12T23:35:13.229Z,99889.05
2023-05-12T23:37:40.122Z,99890.58
2023-05-12T23:40:07.515Z,99884.16
2023-05-12T23:42:34.197Z,99880.14
2023-05-12T23:45:00.914Z,99883.92
2023-05-12T23:47:27.791Z,99884.05
2023-05-12T23:49:54.537Z,99887.94
2023-05-12T23:52:21.195Z,99886.40
2023-05-12T23:54:47.918Z,99886.11
2023-05-12T23:57:14.614Z,99885.22
2023-05-12T23:59:41.288Z,99883.60
